Time;durP1;ratioP1;P1;durP2;ratioP2;P2;SDS_P1;SDS_P2;PMS_P1;PMS_P2;Temp;Humidity;BMP_temperature;BMP_pressure;BME280_temperature;BME280_humidity;BME280_pressure;Samples;Min_cycle;Max_cycle;Signal;HPM_P1;HPM_P2
2021/12/27 00:00:58;;;;;;;;;;;6.30;99.90;;;;;;4303428;33;40503;-76
2021/12/27 00:03:26;;;;;;;;;;;6.30;99.90;;;;;;4289850;33;38362;-76
2021/12/27 00:05:54;;;;;;;;;;;6.30;99.90;;;;;;4303339;33;30719;-76
2021/12/27 00:08:23;;;;;;;;;;;6.30;99.90;;;;;;4290682;33;36314;-76
2021/12/27 00:10:50;;;;;;;;;;;6.40;99.90;;;;;;4291497;33;20010;-76
2021/12/27 00:13:25;;;;;;;;;;;6.30;99.90;;;;;;4304484;33;20006;-76
2021/12/27 00:15:54;;;;;;;;;;;6.30;99.90;;;;;;4278447;33;30202;-76
2021/12/27 00:18:21;;;;;;;;;;;6.40;99.90;;;;;;4303481;33;40383;-76
2021/12/27 00:20:51;;;;;;;;;;;6.30;99.90;;;;;;4303870;33;20087;-76
2021/12/27 00:23:23;;;;;;;;;;;6.30;99.90;;;;;;4279123;33;19999;-77
2021/12/27 00:25:50;;;;;;;;;;;6.30;99.90;;;;;;4290129;33;41249;-76
2021/12/27 00:28:17;;;;;;;;;;;6.30;99.90;;;;;;4290000;33;37676;-76
2021/12/27 00:30:44;;;;;;;;;;;6.30;99.90;;;;;;4290116;33;35858;-76
2021/12/27 00:33:11;;;;;;;;;;;6.30;99.90;;;;;;4290197;33;40454;-76
2021/12/27 00:35:40;;;;;;;;;;;6.30;99.90;;;;;;4289926;33;40515;-76
2021/12/27 00:38:08;;;;;;;;;;;6.30;99.90;;;;;;4278293;33;37950;-75
2021/12/27 00:40:35;;;;;;;;;;;6.40;99.90;;;;;;4289936;33;30437;-76
2021/12/27 00:43:02;;;;;;;;;;;6.30;99.90;;;;;;4277633;33;45950;-76
2021/12/27 00:45:30;;;;;;;;;;;6.30;99.90;;;;;;4277739;33;37799;-76
2021/12/27 00:47:57;;;;;;;;;;;6.30;99.90;;;;;;4290013;33;34803;-76
2021/12/27 00:50:24;;;;;;;;;;;6.30;99.90;;;;;;4278649;33;19994;-76
2021/12/27 00:52:51;;;;;;;;;;;6.30;99.90;;;;;;4289645;33;32551;-76
2021/12/27 00:55:19;;;;;;;;;;;6.30;99.90;;;;;;4277431;33;41462;-76
2021/12/27 00:57:46;;;;;;;;;;;6.40;99.90;;;;;;4302398;33;41215;-76
2021/12/27 01:00:15;;;;;;;;;;;6.30;99.90;;;;;;4302722;33;44631;-76
2021/12/27 01:02:43;;;;;;;;;;;6.30;99.90;;;;;;4302723;33;23207;-76
2021/12/27 01:05:11;;;;;;;;;;;6.30;99.90;;;;;;4289929;33;39356;-76
2021/12/27 01:07:38;;;;;;;;;;;6.30;99.90;;;;;;4277596;33;41888;-76
2021/12/27 01:13:25;;;;;;;;;;;6.40;99.90;;;;;;4290206;33;20018;-76
2021/12/27 01:15:45;;;;;;;;;;;6.30;99.90;;;;;;4283036;33;20010;-76
2021/12/27 01:18:12;;;;;;;;;;;6.40;99.90;;;;;;4276584;33;39809;-76
2021/12/27 01:20:40;;;;;;;;;;;6.40;99.90;;;;;;4290274;33;20526;-76
2021/12/27 01:23:07;;;;;;;;;;;6.40;99.90;;;;;;4302763;33;35947;-76
2021/12/27 01:25:34;;;;;;;;;;;6.40;99.90;;;;;;4289497;33;33398;-76
2021/12/27 01:28:01;;;;;;;;;;;6.40;99.90;;;;;;4289161;33;39478;-76
2021/12/27 01:30:28;;;;;;;;;;;6.40;99.90;;;;;;4289320;33;36795;-76
2021/12/27 01:32:59;;;;;;;;;;;6.40;99.90;;;;;;4289521;33;44578;-76
2021/12/27 01:35:26;;;;;;;;;;;6.40;99.90;;;;;;4289710;33;30739;-76
2021/12/27 01:37:56;;;;;;;;;;;6.40;99.90;;;;;;4301965;33;45112;-76
2021/12/27 01:40:24;;;;;;;;;;;6.40;99.90;;;;;;4276854;33;37318;-76
2021/12/27 01:42:59;;;;;;;;;;;6.40;99.90;;;;;;4277083;33;32687;-76
2021/12/27 01:45:26;;;;;;;;;;;6.40;99.90;;;;;;4288686;33;42818;-76
2021/12/27 01:47:53;;;;;;;;;;;6.40;99.90;;;;;;4289271;33;43041;-76
2021/12/27 01:50:23;;;;;;;;;;;6.40;99.90;;;;;;4288825;33;32044;-76
2021/12/27 01:52:53;;;;;;;;;;;6.40;99.90;;;;;;4288633;33;46108;-76
2021/12/27 01:55:20;;;;;;;;;;;6.40;99.90;;;;;;4289038;33;44405;-76
2021/12/27 01:57:47;;;;;;;;;;;6.40;99.90;;;;;;4289847;33;20011;-77
2021/12/27 02:00:14;;;;;;;;;;;6.40;99.90;;;;;;4288498;33;42028;-76
2021/12/27 02:02:45;;;;;;;;;;;6.40;99.90;;;;;;4286183;33;28572;-76
2021/12/27 02:05:14;;;;;;;;;;;6.40;99.90;;;;;;4284931;33;45274;-77
2021/12/27 02:07:41;;;;;;;;;;;6.40;99.90;;;;;;4274645;33;20372;-76
2021/12/27 02:10:12;;;;;;;;;;;6.40;99.90;;;;;;4274665;33;39264;-76
2021/12/27 02:12:39;;;;;;;;;;;6.40;99.90;;;;;;4287373;33;20096;-76
2021/12/27 02:15:09;;;;;;;;;;;6.40;99.90;;;;;;4285956;33;41834;-77
2021/12/27 02:17:38;;;;;;;;;;;6.50;99.90;;;;;;4286216;33;28318;-76
2021/12/27 02:20:10;;;;;;;;;;;6.40;99.90;;;;;;4286461;33;33640;-76
2021/12/27 02:22:40;;;;;;;;;;;6.40;99.90;;;;;;4287491;33;39012;-76
2021/12/27 02:25:07;;;;;;;;;;;6.50;99.90;;;;;;4286902;33;39398;-76
2021/12/27 02:27:34;;;;;;;;;;;6.40;99.90;;;;;;4287036;33;20014;-76
2021/12/27 02:30:06;;;;;;;;;;;6.40;99.90;;;;;;4285822;33;43558;-76
2021/12/27 02:32:43;;;;;;;;;;;6.50;99.90;;;;;;4287506;33;27302;-76
2021/12/27 02:35:15;;;;;;;;;;;6.50;99.90;;;;;;4287337;33;41125;-76
2021/12/27 02:37:42;;;;;;;;;;;6.50;99.90;;;;;;4286447;33;33007;-76
2021/12/27 02:40:09;;;;;;;;;;;6.50;99.90;;;;;;4286145;33;27170;-76
2021/12/27 02:42:55;;;;;;;;;;;6.50;99.90;;;;;;4286493;33;34812;-76
2021/12/27 02:45:23;;;;;;;;;;;6.50;99.90;;;;;;4287110;33;20007;-76
2021/12/27 02:47:53;;;;;;;;;;;6.50;99.90;;;;;;4286704;33;20578;-76
2021/12/27 02:50:20;;;;;;;;;;;6.50;99.90;;;;;;4286945;33;20082;-76
2021/12/27 02:52:53;;;;;;;;;;;6.50;99.90;;;;;;4274799;33;19998;-76
2021/12/27 02:55:20;;;;;;;;;;;6.50;99.90;;;;;;4275146;33;20061;-76
2021/12/27 02:57:48;;;;;;;;;;;6.50;99.90;;;;;;4275263;33;20002;-76
2021/12/27 03:00:41;;;;;;;;;;;6.50;99.90;;;;;;4287397;33;20028;-76
2021/12/27 03:03:08;;;;;;;;;;;6.50;99.90;;;;;;4286612;33;20031;-76
2021/12/27 03:05:35;;;;;;;;;;;6.50;99.90;;;;;;4287957;33;20024;-76
2021/12/27 03:08:03;;;;;;;;;;;6.50;99.90;;;;;;4287165;33;20448;-76
2021/12/27 03:10:32;;;;;;;;;;;6.50;99.90;;;;;;4274633;33;20483;-76
2021/12/27 03:13:00;;;;;;;;;;;6.50;99.90;;;;;;4287930;33;20024;-76
2021/12/27 03:15:27;;;;;;;;;;;6.60;99.90;;;;;;4286679;33;20026;-77
2021/12/27 03:17:57;;;;;;;;;;;6.60;99.90;;;;;;4288628;33;20007;-76
2021/12/27 03:20:26;;;;;;;;;;;6.60;99.90;;;;;;4289578;33;20024;-75
2021/12/27 03:22:58;;;;;;;;;;;6.60;99.90;;;;;;4289318;33;20003;-76
2021/12/27 03:25:28;;;;;;;;;;;6.60;99.90;;;;;;4290854;33;20018;-76
2021/12/27 03:27:55;;;;;;;;;;;6.60;99.90;;;;;;4290082;33;20469;-76
2021/12/27 03:30:23;;;;;;;;;;;6.60;99.90;;;;;;4290047;33;20010;-76
2021/12/27 03:32:54;;;;;;;;;;;6.60;99.90;;;;;;4290206;33;20447;-76
2021/12/27 03:35:29;;;;;;;;;;;6.60;99.90;;;;;;4289530;33;20006;-76
2021/12/27 03:38:00;;;;;;;;;;;6.60;99.90;;;;;;4289732;33;20017;-76
2021/12/27 03:40:27;;;;;;;;;;;6.60;99.90;;;;;;4288413;33;20390;-76
2021/12/27 03:42:57;;;;;;;;;;;6.50;99.90;;;;;;4289274;33;20006;-76
2021/12/27 03:45:29;;;;;;;;;;;6.50;99.90;;;;;;4290366;33;20058;-76
2021/12/27 03:47:58;;;;;;;;;;;6.50;99.90;;;;;;4289411;33;20003;-77
2021/12/27 03:50:31;;;;;;;;;;;6.50;99.90;;;;;;4289378;33;20097;-76
2021/12/27 03:53:00;;;;;;;;;;;6.50;99.90;;;;;;4289016;33;19999;-76
2021/12/27 03:55:28;;;;;;;;;;;6.50;99.90;;;;;;4289241;33;20010;-76
2021/12/27 03:58:07;;;;;;;;;;;6.50;99.90;;;;;;4276964;33;19998;-76
2021/12/27 04:03:13;;;;;;;;;;;6.50;99.90;;;;;;4297516;33;20415;-76
2021/12/27 04:05:42;;;;;;;;;;;6.50;99.90;;;;;;4279571;33;20054;-76
2021/12/27 04:08:09;;;;;;;;;;;6.50;99.90;;;;;;4304239;33;20018;-76
2021/12/27 04:10:40;;;;;;;;;;;6.60;99.90;;;;;;4291265;33;19995;-76
2021/12/27 04:13:11;;;;;;;;;;;6.50;99.90;;;;;;4278108;33;42229;-76
2021/12/27 04:15:39;;;;;;;;;;;6.50;99.90;;;;;;4303748;33;28337;-76
2021/12/27 04:18:09;;;;;;;;;;;6.60;99.90;;;;;;4290110;33;37385;-76
2021/12/27 04:20:39;;;;;;;;;;;6.60;99.90;;;;;;4290458;33;44429;-76
2021/12/27 04:23:06;;;;;;;;;;;6.60;99.90;;;;;;4289809;33;39619;-76
2021/12/27 04:25:36;;;;;;;;;;;6.60;99.90;;;;;;4278100;33;32770;-76
2021/12/27 04:28:03;;;;;;;;;;;6.60;99.90;;;;;;4289564;33;42974;-76
2021/12/27 04:30:33;;;;;;;;;;;6.60;99.90;;;;;;4277655;33;43291;-76
2021/12/27 04:33:01;;;;;;;;;;;6.60;99.90;;;;;;4304558;33;20061;-76
2021/12/27 04:35:29;;;;;;;;;;;6.60;99.90;;;;;;4279257;33;19998;-76
2021/12/27 04:37:56;;;;;;;;;;;6.60;99.90;;;;;;4291174;33;20014;-76
2021/12/27 04:40:28;;;;;;;;;;;6.60;99.90;;;;;;4304193;33;20006;-76
2021/12/27 04:42:59;;;;;;;;;;;6.60;99.90;;;;;;4278763;33;22787;-75
2021/12/27 04:45:29;;;;;;;;;;;6.60;99.90;;;;;;4304401;33;20016;-76
2021/12/27 04:48:01;;;;;;;;;;;6.70;99.90;;;;;;4290714;33;20018;-77
2021/12/27 04:50:28;;;;;;;;;;;6.60;99.90;;;;;;4290328;33;34071;-76
2021/12/27 04:52:55;;;;;;;;;;;6.70;99.90;;;;;;4278083;33;36916;-76
2021/12/27 04:55:26;;;;;;;;;;;6.70;99.90;;;;;;4302783;33;34051;-76
2021/12/27 04:57:54;;;;;;;;;;;6.70;99.90;;;;;;4291061;33;20043;-76
2021/12/27 05:00:24;;;;;;;;;;;6.70;99.90;;;;;;4289601;33;39796;-76
2021/12/27 05:02:51;;;;;;;;;;;6.70;99.90;;;;;;4290607;33;20454;-76
2021/12/27 05:05:19;;;;;;;;;;;6.70;99.90;;;;;;4290650;33;20018;-76
2021/12/27 05:07:47;;;;;;;;;;;6.70;99.90;;;;;;4289874;33;29581;-76
2021/12/27 05:10:16;;;;;;;;;;;6.70;99.90;;;;;;4302229;33;43358;-76
2021/12/27 05:12:43;;;;;;;;;;;6.70;99.90;;;;;;4277285;33;39181;-76
2021/12/27 05:15:11;;;;;;;;;;;6.70;99.90;;;;;;4289302;33;44919;-76
2021/12/27 05:17:38;;;;;;;;;;;6.80;99.90;;;;;;4289751;33;40823;-77
2021/12/27 05:20:05;;;;;;;;;;;6.70;99.90;;;;;;4288854;33;42780;-76
2021/12/27 05:22:32;;;;;;;;;;;6.70;99.90;;;;;;4289638;33;38259;-76
2021/12/27 05:25:00;;;;;;;;;;;6.70;99.90;;;;;;4289948;33;30354;-76
2021/12/27 05:27:27;;;;;;;;;;;6.70;99.90;;;;;;4302115;33;41935;-76
2021/12/27 05:30:11;;;;;;;;;;;6.70;99.90;;;;;;4303020;33;24896;-76
2021/12/27 05:32:45;;;;;;;;;;;6.70;99.90;;;;;;4289147;33;43031;-76
2021/12/27 05:35:13;;;;;;;;;;;6.70;99.90;;;;;;4302503;33;36251;-76
2021/12/27 05:37:41;;;;;;;;;;;6.70;99.90;;;;;;4277309;33;29541;-76
2021/12/27 05:40:11;;;;;;;;;;;6.70;99.90;;;;;;4276775;33;31825;-76
2021/12/27 05:42:38;;;;;;;;;;;6.70;99.90;;;;;;4302660;33;29491;-76
2021/12/27 05:45:08;;;;;;;;;;;6.70;99.90;;;;;;4289309;33;39191;-76
2021/12/27 05:47:38;;;;;;;;;;;6.70;99.90;;;;;;4302363;33;31799;-76
2021/12/27 05:50:06;;;;;;;;;;;6.70;99.90;;;;;;4289147;33;40545;-76
2021/12/27 05:52:33;;;;;;;;;;;6.70;99.90;;;;;;4278077;33;19998;-76
2021/12/27 05:55:06;;;;;;;;;;;6.70;99.90;;;;;;4288531;33;43926;-76
2021/12/27 05:57:33;;;;;;;;;;;6.70;99.90;;;;;;4302618;33;28936;-76
2021/12/27 06:00:00;;;;;;;;;;;6.70;99.90;;;;;;4278250;33;20010;-76
2021/12/27 06:02:33;;;;;;;;;;;6.70;99.90;;;;;;4302403;33;20018;-76
2021/12/27 06:05:03;;;;;;;;;;;6.70;99.90;;;;;;4290584;33;20018;-76
2021/12/27 06:07:30;;;;;;;;;;;6.70;99.90;;;;;;4289867;33;20041;-76
2021/12/27 06:09:57;;;;;;;;;;;6.70;99.90;;;;;;4303002;33;20068;-77
2021/12/27 06:12:27;;;;;;;;;;;6.70;99.90;;;;;;4278093;33;20012;-76
2021/12/27 06:14:54;;;;;;;;;;;6.70;99.90;;;;;;4302615;33;20434;-76
2021/12/27 06:17:21;;;;;;;;;;;6.70;99.90;;;;;;4289121;33;19998;-76
2021/12/27 06:19:49;;;;;;;;;;;6.70;99.90;;;;;;4289302;33;20024;-76
2021/12/27 06:22:18;;;;;;;;;;;6.70;99.90;;;;;;4302418;33;20026;-76
2021/12/27 06:24:45;;;;;;;;;;;6.70;99.90;;;;;;4302839;33;20011;-76
2021/12/27 06:27:12;;;;;;;;;;;6.70;99.90;;;;;;4289642;33;20006;-76
2021/12/27 06:29:42;;;;;;;;;;;6.70;99.90;;;;;;4302564;33;20020;-76
2021/12/27 06:32:13;;;;;;;;;;;6.70;99.90;;;;;;4289821;33;20363;-76
2021/12/27 06:34:41;;;;;;;;;;;6.70;99.90;;;;;;4289687;33;19998;-76
2021/12/27 06:37:08;;;;;;;;;;;6.70;99.90;;;;;;4277598;33;19991;-76
2021/12/27 06:39:35;;;;;;;;;;;6.70;99.90;;;;;;4277607;33;19998;-76
2021/12/27 06:42:06;;;;;;;;;;;6.60;99.90;;;;;;4301919;33;20089;-76
2021/12/27 06:44:33;;;;;;;;;;;6.70;99.90;;;;;;4289234;33;20046;-76
2021/12/27 06:47:01;;;;;;;;;;;6.60;99.90;;;;;;4302786;33;20060;-76
2021/12/27 06:49:35;;;;;;;;;;;6.60;99.90;;;;;;4302671;33;20002;-76
2021/12/27 06:52:02;;;;;;;;;;;6.60;99.90;;;;;;4304631;33;20054;-76
2021/12/27 06:54:32;;;;;;;;;;;6.70;99.90;;;;;;4305445;33;20014;-76
2021/12/27 06:57:03;;;;;;;;;;;6.60;99.90;;;;;;4280588;33;20376;-77
2021/12/27 06:59:33;;;;;;;;;;;6.60;99.90;;;;;;4305249;33;20058;-77
2021/12/27 07:02:00;;;;;;;;;;;6.60;99.90;;;;;;4291932;33;20008;-77
2021/12/27 07:04:27;;;;;;;;;;;6.60;99.90;;;;;;4292482;33;20013;-76
2021/12/27 07:06:54;;;;;;;;;;;6.60;99.90;;;;;;4305226;33;20018;-76
2021/12/27 07:09:24;;;;;;;;;;;6.60;99.90;;;;;;4292363;33;20028;-76
2021/12/27 07:11:51;;;;;;;;;;;6.60;99.90;;;;;;4304585;33;20041;-76
2021/12/27 07:14:19;;;;;;;;;;;6.60;99.90;;;;;;4291987;33;20018;-76
2021/12/27 07:16:48;;;;;;;;;;;6.60;99.90;;;;;;4304993;33;20018;-76
2021/12/27 07:19:16;;;;;;;;;;;6.60;99.90;;;;;;4292111;33;20123;-77
2021/12/27 07:21:44;;;;;;;;;;;6.60;99.90;;;;;;4291897;33;20370;-76
2021/12/27 07:24:11;;;;;;;;;;;6.60;99.90;;;;;;4279854;33;20062;-76
2021/12/27 07:26:41;;;;;;;;;;;6.60;99.90;;;;;;4291666;33;20018;-76
2021/12/27 07:29:13;;;;;;;;;;;6.60;99.90;;;;;;4304909;33;20036;-76
2021/12/27 07:31:41;;;;;;;;;;;6.60;99.90;;;;;;4291475;33;20024;-76
2021/12/27 07:34:12;;;;;;;;;;;6.60;99.90;;;;;;4291823;33;20014;-76
2021/12/27 07:36:44;;;;;;;;;;;6.60;99.90;;;;;;4305103;33;20050;-76
2021/12/27 07:39:17;;;;;;;;;;;6.60;99.90;;;;;;4292051;33;20420;-76
2021/12/27 07:41:45;;;;;;;;;;;6.60;99.90;;;;;;4305269;33;20031;-76
2021/12/27 07:44:12;;;;;;;;;;;6.70;99.90;;;;;;4304869;33;20061;-76
2021/12/27 07:46:43;;;;;;;;;;;6.60;99.90;;;;;;4291584;33;20024;-76
2021/12/27 07:49:11;;;;;;;;;;;6.60;99.90;;;;;;4278973;33;19994;-76
2021/12/27 07:51:42;;;;;;;;;;;6.60;99.90;;;;;;4291279;33;20028;-76
2021/12/27 07:54:09;;;;;;;;;;;6.60;99.90;;;;;;4279778;33;19994;-76
2021/12/27 07:56:38;;;;;;;;;;;6.70;99.90;;;;;;4291566;33;20062;-76
2021/12/27 07:59:05;;;;;;;;;;;6.60;99.90;;;;;;4279348;33;20008;-76
2021/12/27 08:01:36;;;;;;;;;;;6.70;99.90;;;;;;4291768;33;20048;-76
2021/12/27 08:04:07;;;;;;;;;;;6.60;99.90;;;;;;4276230;33;20076;-76
2021/12/27 08:06:40;;;;;;;;;;;6.60;99.90;;;;;;4288756;33;20033;-76
2021/12/27 08:09:09;;;;;;;;;;;6.60;99.90;;;;;;4290092;33;20006;-76
2021/12/27 08:11:40;;;;;;;;;;;6.60;99.90;;;;;;4288893;33;20430;-76
2021/12/27 08:14:07;;;;;;;;;;;6.70;99.90;;;;;;4288829;33;20070;-77
2021/12/27 08:16:34;;;;;;;;;;;6.70;99.90;;;;;;4288211;33;20496;-78
2021/12/27 08:19:01;;;;;;;;;;;6.70;99.90;;;;;;4288425;33;20011;-78
2021/12/27 08:21:31;;;;;;;;;;;6.70;99.90;;;;;;4288856;33;20021;-78
2021/12/27 08:24:00;;;;;;;;;;;6.70;99.90;;;;;;4289566;33;20007;-79
2021/12/27 08:26:27;;;;;;;;;;;6.70;99.90;;;;;;4289046;33;20014;-79
2021/12/27 08:28:55;;;;;;;;;;;6.70;99.90;;;;;;4276437;33;20007;-79
2021/12/27 08:31:22;;;;;;;;;;;6.70;99.90;;;;;;4288473;33;20042;-78
2021/12/27 08:33:55;;;;;;;;;;;6.80;99.90;;;;;;4288824;33;20013;-79
2021/12/27 08:36:22;;;;;;;;;;;6.70;99.90;;;;;;4289930;33;20010;-78
2021/12/27 08:38:50;;;;;;;;;;;6.80;99.90;;;;;;4289635;33;20420;-78
2021/12/27 08:41:28;;;;;;;;;;;6.80;99.90;;;;;;4276412;33;20003;-79
2021/12/27 08:44:03;;;;;;;;;;;6.70;99.90;;;;;;4289779;33;20033;-79
2021/12/27 08:46:31;;;;;;;;;;;6.80;99.90;;;;;;4288373;33;20015;-78
2021/12/27 08:48:59;;;;;;;;;;;6.80;99.90;;;;;;4288495;33;20379;-79
2021/12/27 08:51:26;;;;;;;;;;;6.80;99.90;;;;;;4288489;33;20333;-78
2021/12/27 08:53:53;;;;;;;;;;;6.80;99.90;;;;;;4289428;33;20066;-79
2021/12/27 08:56:29;;;;;;;;;;;6.80;99.90;;;;;;4288127;33;20049;-79
2021/12/27 08:58:56;;;;;;;;;;;6.80;99.90;;;;;;4288205;33;19999;-78
2021/12/27 09:01:24;;;;;;;;;;;6.80;99.90;;;;;;4288089;33;20061;-79
2021/12/27 09:03:51;;;;;;;;;;;6.80;99.90;;;;;;4301001;33;20017;-79
2021/12/27 09:06:21;;;;;;;;;;;6.80;99.90;;;;;;4278275;33;19995;-79
2021/12/27 09:08:51;;;;;;;;;;;6.80;99.90;;;;;;4290414;33;20010;-78
2021/12/27 09:11:24;;;;;;;;;;;6.80;99.90;;;;;;4278304;33;20415;-79
2021/12/27 09:13:56;;;;;;;;;;;6.80;99.90;;;;;;4290821;33;20010;-79
2021/12/27 09:16:44;;;;;;;;;;;6.90;99.90;;;;;;4302613;33;33568;-78
2021/12/27 09:19:11;;;;;;;;;;;6.90;99.90;;;;;;4289394;33;38703;-79
2021/12/27 09:21:39;;;;;;;;;;;6.90;99.90;;;;;;4288888;33;46267;-79
2021/12/27 09:24:11;;;;;;;;;;;6.90;99.90;;;;;;4289965;33;20016;-79
2021/12/27 09:26:39;;;;;;;;;;;6.90;99.90;;;;;;4302577;33;42766;-78
2021/12/27 09:29:08;;;;;;;;;;;6.90;99.90;;;;;;4289135;33;45178;-79
2021/12/27 09:31:35;;;;;;;;;;;6.90;99.90;;;;;;4288617;33;44670;-79
2021/12/27 09:34:02;;;;;;;;;;;6.90;99.90;;;;;;4302003;33;37624;-79
2021/12/27 09:36:29;;;;;;;;;;;6.90;99.90;;;;;;4289704;33;29924;-79
2021/12/27 09:38:56;;;;;;;;;;;6.90;99.90;;;;;;4302003;33;44111;-78
2021/12/27 09:41:24;;;;;;;;;;;6.90;99.90;;;;;;4277033;33;46768;-78
2021/12/27 09:43:52;;;;;;;;;;;6.90;99.90;;;;;;4288550;33;43847;-80
2021/12/27 09:46:19;;;;;;;;;;;6.90;99.90;;;;;;4302219;33;40943;-79
2021/12/27 09:48:47;;;;;;;;;;;7.00;99.90;;;;;;4302394;33;39406;-78
2021/12/27 09:51:14;;;;;;;;;;;7.00;99.90;;;;;;4302057;33;43412;-78
2021/12/27 09:53:41;;;;;;;;;;;7.00;99.90;;;;;;4288623;33;45146;-78
2021/12/27 09:56:09;;;;;;;;;;;7.00;99.90;;;;;;4302162;33;40400;-78
2021/12/27 09:58:36;;;;;;;;;;;7.00;99.90;;;;;;4288536;33;42379;-79
2021/12/27 10:01:05;;;;;;;;;;;7.00;99.90;;;;;;4277141;33;28558;-79
2021/12/27 10:04:05;;;;;;;;;;;7.10;99.90;;;;;;4288565;33;43847;-79
2021/12/27 10:06:32;;;;;;;;;;;7.00;99.90;;;;;;4265184;33;36356;-79
2021/12/27 10:09:00;;;;;;;;;;;7.00;99.90;;;;;;4276609;33;35078;-80
2021/12/27 10:11:32;;;;;;;;;;;7.00;99.90;;;;;;4289942;33;20006;-79
2021/12/27 10:14:08;;;;;;;;;;;7.10;99.90;;;;;;4302211;33;29759;-79
2021/12/27 10:16:44;;;;;;;;;;;7.10;99.90;;;;;;4289868;33;20017;-78
2021/12/27 10:19:13;;;;;;;;;;;7.10;99.90;;;;;;4289477;33;20022;-79
2021/12/27 10:21:43;;;;;;;;;;;7.10;99.90;;;;;;4301842;33;38640;-78
2021/12/27 10:24:18;;;;;;;;;;;7.10;99.90;;;;;;4301761;33;30124;-79
2021/12/27 10:26:47;;;;;;;;;;;7.20;99.90;;;;;;4288167;33;45667;-78
2021/12/27 10:29:16;;;;;;;;;;;7.20;99.90;;;;;;4288344;33;40560;-78
2021/12/27 10:31:54;;;;;;;;;;;7.20;99.90;;;;;;4288539;33;42299;-78
2021/12/27 10:34:23;;;;;;;;;;;7.20;99.90;;;;;;4287980;33;47121;-79
2021/12/27 10:37:16;;;;;;;;;;;7.20;99.90;;;;;;4301768;33;42469;-79
2021/12/27 10:39:46;;;;;;;;;;;7.20;99.90;;;;;;4287598;33;20419;-79
2021/12/27 10:42:15;;;;;;;;;;;7.30;99.90;;;;;;4302348;33;20062;-79
2021/12/27 10:44:42;;;;;;;;;;;7.30;99.90;;;;;;4289591;33;20359;-79
2021/12/27 10:47:29;;;;;;;;;;;7.40;99.90;;;;;;4276972;33;20034;-78
2021/12/27 10:50:04;;;;;;;;;;;7.40;99.90;;;;;;4289464;33;20007;-79
2021/12/27 10:52:50;;;;;;;;;;;7.40;99.90;;;;;;4289235;33;21248;-76
2021/12/27 10:55:19;;;;;;;;;;;7.40;99.90;;;;;;4289090;33;20404;-82
2021/12/27 10:57:52;;;;;;;;;;;7.40;99.90;;;;;;4277735;33;20021;-87
2021/12/27 11:00:27;;;;;;;;;;;7.40;99.90;;;;;;4277683;33;20000;-84
2021/12/27 11:03:01;;;;;;;;;;;7.30;99.90;;;;;;4287070;33;20077;-84
2021/12/27 11:05:30;;;;;;;;;;;7.40;99.90;;;;;;4287192;33;20021;-84
2021/12/27 11:07:59;;;;;;;;;;;7.40;99.90;;;;;;4274620;33;20422;-84
2021/12/27 11:10:27;;;;;;;;;;;7.40;99.90;;;;;;4274708;33;20011;-83
2021/12/27 11:12:59;;;;;;;;;;;7.40;99.90;;;;;;4274657;33;20007;-83
2021/12/27 11:15:27;;;;;;;;;;;7.40;99.90;;;;;;4287345;33;20026;-84
2021/12/27 11:17:55;;;;;;;;;;;7.40;99.90;;;;;;4275064;33;20054;-84
2021/12/27 11:20:26;;;;;;;;;;;7.40;99.90;;;;;;4286716;33;20509;-84
2021/12/27 11:22:55;;;;;;;;;;;7.40;99.90;;;;;;4286527;33;20003;-84
2021/12/27 11:25:37;;;;;;;;;;;7.50;99.90;;;;;;4287181;33;20003;-84
2021/12/27 11:28:06;;;;;;;;;;;7.50;99.90;;;;;;4287119;33;20066;-84
2021/12/27 11:30:37;;;;;;;;;;;7.50;99.90;;;;;;4286748;33;20014;-84
2021/12/27 11:33:12;;;;;;;;;;;7.50;99.90;;;;;;4286934;33;19999;-83
2021/12/27 11:35:51;;;;;;;;;;;7.50;99.90;;;;;;4274027;33;38039;-83
2021/12/27 11:38:28;;;;;;;;;;;7.50;99.90;;;;;;4275979;33;20002;-83
2021/12/27 11:40:55;;;;;;;;;;;7.50;99.90;;;;;;4289731;33;34990;-83
2021/12/27 11:43:22;;;;;;;;;;;7.50;99.90;;;;;;4288800;33;36650;-83
2021/12/27 11:45:54;;;;;;;;;;;7.50;99.90;;;;;;4288924;33;24908;-84
2021/12/27 11:48:28;;;;;;;;;;;7.50;99.90;;;;;;4288047;33;40469;-83
2021/12/27 11:51:03;;;;;;;;;;;7.60;99.90;;;;;;4288437;33;43105;-83
2021/12/27 11:53:31;;;;;;;;;;;7.50;99.90;;;;;;4288305;33;44392;-83
2021/12/27 11:55:59;;;;;;;;;;;7.50;99.90;;;;;;4288377;33;38270;-83
2021/12/27 11:58:32;;;;;;;;;;;7.60;99.90;;;;;;4288035;33;41263;-84
2021/12/27 12:01:02;;;;;;;;;;;7.60;99.90;;;;;;4289203;33;19994;-84
2021/12/27 12:03:40;;;;;;;;;;;7.60;99.90;;;;;;4299550;33;20073;-84
2021/12/27 12:06:27;;;;;;;;;;;7.60;99.90;;;;;;4290884;33;20454;-84
2021/12/27 12:08:56;;;;;;;;;;;7.60;99.90;;;;;;4291692;33;19998;-84
2021/12/27 12:11:31;;;;;;;;;;;7.60;99.90;;;;;;4279574;33;19998;-84
2021/12/27 12:14:18;;;;;;;;;;;7.60;99.90;;;;;;4304237;33;20020;-83
2021/12/27 12:16:46;;;;;;;;;;;7.60;99.90;;;;;;4291146;33;20104;-84
2021/12/27 12:19:14;;;;;;;;;;;7.60;99.90;;;;;;4291554;33;20343;-84
2021/12/27 12:21:48;;;;;;;;;;;7.70;99.90;;;;;;4278814;33;20073;-84
2021/12/27 12:24:17;;;;;;;;;;;7.70;99.90;;;;;;4304445;33;20021;-84
2021/12/27 12:26:45;;;;;;;;;;;7.70;99.90;;;;;;4291175;33;20239;-84
2021/12/27 12:29:26;;;;;;;;;;;7.70;99.90;;;;;;4290897;33;19994;-84
2021/12/27 12:31:58;;;;;;;;;;;7.70;99.90;;;;;;4290380;33;21898;-84
2021/12/27 12:34:25;;;;;;;;;;;7.70;99.90;;;;;;4290852;33;20005;-84
2021/12/27 12:36:54;;;;;;;;;;;7.70;99.90;;;;;;4291051;33;20026;-84
2021/12/27 12:39:22;;;;;;;;;;;7.80;99.90;;;;;;4291086;33;20024;-84
2021/12/27 12:41:51;;;;;;;;;;;7.80;99.90;;;;;;4278564;33;24883;-84
2021/12/27 12:44:21;;;;;;;;;;;7.80;99.90;;;;;;4277851;33;38311;-84
2021/12/27 12:46:50;;;;;;;;;;;7.80;99.90;;;;;;4277816;33;36469;-83
2021/12/27 12:49:22;;;;;;;;;;;7.80;99.90;;;;;;4289850;33;36595;-84
2021/12/27 12:51:51;;;;;;;;;;;7.80;99.90;;;;;;4277936;33;42220;-84
2021/12/27 12:54:27;;;;;;;;;;;7.80;99.90;;;;;;4277386;33;42597;-84
2021/12/27 12:57:13;;;;;;;;;;;7.80;99.90;;;;;;4290120;33;37646;-83
2021/12/27 12:59:56;;;;;;;;;;;7.80;99.90;;;;;;4277664;33;44293;-84
2021/12/27 13:02:25;;;;;;;;;;;7.90;99.90;;;;;;4302401;33;44327;-84
2021/12/27 13:05:04;;;;;;;;;;;7.90;99.90;;;;;;4277825;33;35903;-84
2021/12/27 13:07:33;;;;;;;;;;;7.90;99.90;;;;;;4290004;33;41106;-84
2021/12/27 13:10:01;;;;;;;;;;;7.90;99.90;;;;;;4290247;33;31636;-84
2021/12/27 13:12:28;;;;;;;;;;;7.90;99.90;;;;;;4289760;33;34437;-84
2021/12/27 13:14:55;;;;;;;;;;;7.90;99.90;;;;;;4289838;33;38538;-86
2021/12/27 13:17:26;;;;;;;;;;;7.90;99.90;;;;;;4277405;33;35068;-86
2021/12/27 13:20:04;;;;;;;;;;;8.00;99.90;;;;;;4289799;33;37820;-85
2021/12/27 13:22:43;;;;;;;;;;;8.00;99.90;;;;;;4290589;33;29471;-85
2021/12/27 13:25:13;;;;;;;;;;;8.00;99.90;;;;;;4278380;33;20002;-85
2021/12/27 13:27:41;;;;;;;;;;;8.00;99.90;;;;;;4303241;33;20007;-85
2021/12/27 13:30:08;;;;;;;;;;;8.00;99.90;;;;;;4290117;33;20005;-85
2021/12/27 13:32:41;;;;;;;;;;;8.00;99.90;;;;;;4290754;33;20010;-85
2021/12/27 13:35:13;;;;;;;;;;;8.00;99.90;;;;;;4278715;33;20058;-88
2021/12/27 13:37:42;;;;;;;;;;;8.00;99.90;;;;;;4303652;33;20058;-84
2021/12/27 13:40:14;;;;;;;;;;;8.00;99.90;;;;;;4278650;33;20018;-87
2021/12/27 13:42:41;;;;;;;;;;;8.10;99.90;;;;;;4278253;33;20024;-86
2021/12/27 13:45:09;;;;;;;;;;;8.10;99.90;;;;;;4278214;33;20006;-86
2021/12/27 13:47:37;;;;;;;;;;;8.10;99.90;;;;;;4278399;33;20054;-85
2021/12/27 13:50:05;;;;;;;;;;;8.10;99.90;;;;;;4290399;33;20002;-86
2021/12/27 13:52:42;;;;;;;;;;;8.10;99.90;;;;;;4277332;33;38088;-85
2021/12/27 13:55:19;;;;;;;;;;;8.10;99.90;;;;;;4290532;33;20058;-86
2021/12/27 13:57:46;;;;;;;;;;;8.10;99.90;;;;;;4290444;33;20073;-86
2021/12/27 14:00:23;;;;;;;;;;;8.10;99.90;;;;;;4290002;33;20000;-86
2021/12/27 14:02:50;;;;;;;;;;;8.10;99.90;;;;;;4302854;33;20006;-85
2021/12/27 14:05:26;;;;;;;;;;;8.10;99.90;;;;;;4289334;33;22338;-86
2021/12/27 14:07:56;;;;;;;;;;;8.10;99.90;;;;;;4288977;33;27461;-87
2021/12/27 14:10:23;;;;;;;;;;;8.10;99.90;;;;;;4289280;33;24109;-86
2021/12/27 14:12:58;;;;;;;;;;;8.10;99.90;;;;;;4301565;33;40027;-85
2021/12/27 14:15:27;;;;;;;;;;;8.20;99.90;;;;;;4302264;33;29524;-86
2021/12/27 14:18:05;;;;;;;;;;;8.10;99.90;;;;;;4288788;33;29454;-85
2021/12/27 14:20:33;;;;;;;;;;;8.10;99.90;;;;;;4302214;33;33980;-85
2021/12/27 14:23:05;;;;;;;;;;;8.20;99.90;;;;;;4289996;33;20025;-85
2021/12/27 14:25:33;;;;;;;;;;;8.20;99.90;;;;;;4277219;33;29510;-85
2021/12/27 14:28:03;;;;;;;;;;;8.20;99.90;;;;;;4288756;33;38288;-85
2021/12/27 14:30:34;;;;;;;;;;;8.20;99.90;;;;;;4301966;33;32515;-84
2021/12/27 14:33:01;;;;;;;;;;;8.20;99.90;;;;;;4289844;33;20016;-85
2021/12/27 14:35:28;;;;;;;;;;;8.20;99.90;;;;;;4276677;33;34122;-85
2021/12/27 14:37:57;;;;;;;;;;;8.20;99.90;;;;;;4276295;33;39863;-86
2021/12/27 14:40:25;;;;;;;;;;;8.20;99.90;;;;;;4289317;33;22158;-86
2021/12/27 14:42:54;;;;;;;;;;;8.20;99.90;;;;;;4288884;33;31693;-86
2021/12/27 14:45:24;;;;;;;;;;;8.20;99.90;;;;;;4289934;33;20020;-86
2021/12/27 14:47:52;;;;;;;;;;;8.20;99.90;;;;;;4288290;33;34579;-86
2021/12/27 14:50:20;;;;;;;;;;;8.20;99.90;;;;;;4288415;33;36156;-87
2021/12/27 14:52:47;;;;;;;;;;;8.20;99.90;;;;;;4289092;33;28201;-86